createdAt,value
2024-04-18T00:01:16.629Z,83.22
2024-04-18T00:05:36.090Z,83.17
2024-04-18T00:09:38.711Z,84.16
2024-04-18T00:13:41.178Z,84.79
2024-04-18T00:18:03.783Z,83.48
2024-04-18T00:22:07.779Z,83.95
2024-04-18T00:26:12.440Z,83.99
2024-04-18T00:30:35.623Z,85.17
2024-04-18T00:34:38.019Z,84.92
2024-04-18T00:38:40.533Z,85.86
2024-04-18T00:42:57.619Z,84.68
2024-04-18T00:47:17.764Z,84.50
2024-04-18T00:51:47.345Z,84.97
2024-04-18T00:55:58.624Z,85.52
2024-04-18T01:00:19.545Z,85.79
2024-04-18T01:04:28.639Z,85.37
2024-04-18T01:08:46.479Z,86.28
2024-04-18T01:13:05.206Z,84.97
2024-04-18T01:17:27.867Z,84.99
2024-04-18T01:21:31.266Z,84.21
2024-04-18T01:25:33.553Z,84.35
2024-04-18T01:29:36.014Z,84.01
2024-04-18T01:34:04.148Z,83.74
2024-04-18T01:38:06.917Z,84.00
2024-04-18T01:42:21.204Z,83.65
2024-04-18T01:46:25.294Z,83.71
2024-04-18T01:50:36.590Z,83.15
2024-04-18T01:55:00.686Z,83.29
2024-04-18T01:59:11.920Z,83.99
2024-04-18T02:03:14.478Z,84.57
2024-04-18T02:07:17.638Z,84.99
2024-04-18T02:11:41.156Z,83.66
2024-04-18T02:15:47.098Z,83.63
2024-04-18T02:19:50.239Z,84.62
2024-04-18T02:24:12.822Z,84.29
2024-04-18T02:28:15.201Z,83.78
2024-04-18T02:32:17.535Z,83.44
2024-04-18T02:36:21.238Z,84.26
2024-04-18T02:40:23.553Z,84.53
2024-04-18T02:44:38.097Z,84.07
2024-04-18T02:48:40.323Z,83.49
2024-04-18T02:52:59.269Z,83.86
2024-04-18T02:57:02.507Z,83.92
2024-04-18T03:01:05.131Z,83.64
2024-04-18T03:05:17.538Z,83.01
2024-04-18T03:09:20.016Z,83.29
2024-04-18T03:13:28.529Z,83.71
2024-04-18T03:17:31.792Z,82.97
2024-04-18T03:21:40.195Z,84.43
2024-04-18T03:25:53.702Z,84.02
2024-04-18T03:29:57.082Z,83.39
2024-04-18T03:34:08.587Z,84.13
2024-04-18T03:38:26.077Z,84.42
2024-04-18T03:42:28.011Z,84.17
2024-04-18T03:46:30.417Z,84.35
2024-04-18T03:50:35.758Z,84.77
2024-04-18T03:55:01.435Z,85.10
2024-04-18T03:59:17.128Z,85.11
2024-04-18T04:03:21.057Z,85.25
2024-04-18T04:07:23.565Z,84.99
2024-04-18T04:11:26.803Z,84.23
2024-04-18T04:15:29.290Z,84.67
2024-04-18T04:19:37.710Z,85.45
2024-04-18T04:23:40.529Z,84.36
2024-04-18T04:27:43.009Z,84.73
2024-04-18T04:31:45.471Z,84.53
2024-04-18T04:35:47.889Z,84.79
2024-04-18T04:39:50.894Z,83.83
2024-04-18T04:43:57.290Z,83.91
2024-04-18T04:47:59.645Z,82.97
2024-04-18T04:52:06.456Z,82.78
2024-04-18T04:56:17.857Z,82.84
2024-04-18T05:00:40.374Z,82.88
2024-04-18T05:04:45.126Z,82.33
2024-04-18T05:09:06.041Z,81.96
2024-04-18T05:13:08.389Z,81.19
2024-04-18T05:17:10.768Z,80.77
2024-04-18T05:21:13.332Z,80.22
2024-04-18T05:25:35.113Z,80.10
2024-04-18T05:30:14.214Z,79.91
2024-04-18T05:34:16.726Z,79.76
2024-04-18T05:38:19.362Z,79.99
2024-04-18T05:42:21.710Z,78.84
2024-04-18T05:46:43.491Z,77.83
2024-04-18T05:50:45.821Z,78.63
2024-04-18T05:54:57.019Z,79.10
2024-04-18T05:59:15.285Z,78.08
2024-04-18T06:03:17.659Z,78.00
2024-04-18T06:07:20.721Z,77.62
2024-04-18T06:11:44.076Z,76.39
2024-04-18T06:15:56.342Z,74.78
2024-04-18T06:19:58.756Z,75.62
2024-04-18T06:24:05.871Z,74.66
2024-04-18T06:28:10.580Z,75.09
2024-04-18T06:32:12.845Z,72.91
2024-04-18T06:36:15.284Z,73.11
2024-04-18T06:40:17.245Z,73.48
2024-04-18T06:44:19.688Z,72.50
2024-04-18T06:48:22.848Z,69.75
2024-04-18T06:52:25.302Z,69.73
2024-04-18T06:56:27.635Z,70.51
2024-04-18T07:00:30.781Z,70.92
2024-04-18T07:04:33.271Z,71.93
2024-04-18T07:08:44.663Z,70.70
2024-04-18T07:13:06.968Z,71.61
2024-04-18T07:17:29.438Z,70.88
2024-04-18T07:21:40.749Z,71.33
2024-04-18T07:25:52.274Z,70.54
2024-04-18T07:30:05.545Z,68.93
2024-04-18T07:34:22.792Z,68.24
2024-04-18T07:38:25.676Z,68.98
2024-04-18T07:42:27.733Z,69.00
2024-04-18T07:46:33.536Z,67.80
2024-04-18T07:50:36.180Z,66.19
2024-04-18T07:54:37.991Z,65.57
2024-04-18T07:58:41.160Z,67.45
2024-04-18T08:02:46.734Z,65.50
2024-04-18T08:06:55.038Z,65.00
2024-04-18T08:11:16.502Z,64.84
2024-04-18T08:15:26.601Z,64.26
2024-04-18T08:19:44.890Z,64.78
2024-04-18T08:23:52.789Z,65.63
2024-04-18T08:27:55.127Z,66.39
2024-04-18T08:31:57.599Z,67.62
2024-04-18T08:36:00.098Z,67.80
2024-04-18T08:40:02.560Z,67.56
2024-04-18T08:44:06.113Z,66.98
2024-04-18T08:48:11.381Z,66.25
2024-04-18T08:52:14.171Z,63.88
2024-04-18T08:56:23.027Z,62.68
2024-04-18T09:00:26.819Z,63.69
2024-04-18T09:04:31.144Z,65.17
2024-04-18T09:08:33.866Z,65.74
2024-04-18T09:12:37.588Z,64.16
2024-04-18T09:16:39.987Z,64.18
2024-04-18T09:20:42.580Z,62.04
2024-04-18T09:24:46.949Z,60.29
2024-04-18T09:28:50.202Z,60.95
2024-04-18T09:32:53.297Z,63.14
2024-04-18T09:36:56.467Z,62.14
2024-04-18T09:41:13.339Z,62.64
2024-04-18T09:45:20.636Z,61.81
2024-04-18T09:49:24.192Z,61.00
2024-04-18T09:53:29.970Z,59.57
2024-04-18T09:57:34.690Z,58.19
2024-04-18T10:01:38.575Z,58.21
2024-04-18T10:05:41.232Z,58.84
2024-04-18T10:09:48.585Z,56.70
2024-04-18T10:13:51.162Z,55.84
2024-04-18T10:17:54.058Z,56.63
2024-04-18T10:26:14.941Z,58.20
2024-04-18T10:30:23.280Z,63.12
2024-04-18T10:34:27.960Z,66.42
2024-04-18T10:38:30.856Z,65.92
2024-04-18T10:42:38.496Z,65.06
2024-04-18T10:46:41.007Z,64.42
2024-04-18T10:50:43.590Z,62.92
2024-04-18T10:54:49.236Z,62.13
2024-04-18T10:58:51.591Z,62.77
2024-04-18T11:03:00.215Z,62.02
2024-04-18T11:07:02.851Z,62.28
2024-04-18T11:11:05.448Z,62.95
2024-04-18T11:15:08.110Z,62.44
2024-04-18T11:19:10.777Z,60.60
2024-04-18T11:23:15.614Z,60.28
2024-04-18T11:27:18.506Z,59.93
2024-04-18T11:31:21.856Z,59.06
2024-04-18T11:35:24.562Z,57.70
2024-04-18T11:39:30.596Z,56.85
2024-04-18T11:43:33.297Z,56.94
2024-04-18T11:47:38.149Z,57.48
2024-04-18T11:51:40.719Z,57.92
2024-04-18T11:55:43.235Z,63.72
2024-04-18T12:00:04.212Z,69.34
2024-04-18T12:04:06.972Z,70.44
2024-04-18T12:08:09.474Z,71.99
2024-04-18T12:12:11.832Z,73.79
2024-04-18T12:16:22.509Z,73.06
2024-04-18T12:20:25.382Z,72.88
2024-04-18T12:24:27.847Z,72.07
2024-04-18T12:28:43.197Z,70.46
2024-04-18T12:32:45.530Z,69.10
2024-04-18T12:37:00.182Z,66.49
2024-04-18T12:41:05.425Z,67.30
2024-04-18T12:45:08.789Z,64.90
2024-04-18T12:49:11.493Z,66.73
2024-04-18T12:53:14.071Z,68.28
2024-04-18T12:57:31.452Z,70.65
2024-04-18T13:01:40.287Z,71.83
2024-04-18T13:05:54.358Z,73.00
2024-04-18T13:09:57.968Z,73.02
2024-04-18T13:14:17.956Z,76.14
2024-04-18T13:18:20.527Z,73.78
2024-04-18T13:22:32.561Z,72.21
2024-04-18T13:26:34.914Z,72.21
2024-04-18T13:30:52.273Z,68.32
2024-04-18T13:35:14.639Z,67.02
2024-04-18T13:39:17.174Z,66.09
2024-04-18T13:43:39.229Z,65.58
2024-04-18T13:47:41.791Z,64.17
2024-04-18T13:51:45.147Z,64.83
2024-04-18T13:56:07.410Z,64.31
2024-04-18T14:00:10.450Z,64.13
2024-04-18T14:04:32.672Z,60.03
2024-04-18T14:08:55.160Z,61.94
2024-04-18T14:13:16.261Z,60.41
2024-04-18T14:17:43.237Z,57.25
2024-04-18T14:21:45.558Z,55.26
2024-04-18T14:25:47.887Z,58.14
2024-04-18T14:29:50.594Z,59.88
2024-04-18T14:34:08.753Z,60.15
2024-04-18T14:38:11.041Z,59.59
2024-04-18T14:42:13.419Z,58.96
2024-04-18T14:46:15.959Z,59.55
2024-04-18T14:50:21.136Z,58.13
2024-04-18T14:54:24.449Z,58.71
2024-04-18T14:58:27.841Z,58.48
2024-04-18T15:02:30.194Z,57.13
2024-04-18T15:06:35.695Z,57.03
2024-04-18T15:10:44.078Z,57.40
2024-04-18T15:14:46.721Z,59.73
2024-04-18T15:18:49.772Z,59.92
2024-04-18T15:23:01.054Z,60.31
2024-04-18T15:27:04.923Z,62.25
2024-04-18T15:31:07.420Z,61.20
2024-04-18T15:35:30.319Z,63.89
2024-04-18T15:39:50.971Z,62.84
2024-04-18T15:43:59.791Z,62.46
2024-04-18T15:48:11.328Z,63.94
2024-04-18T15:52:30.097Z,64.44
2024-04-18T15:56:42.775Z,64.47
2024-04-18T16:01:05.182Z,64.14
2024-04-18T16:05:07.660Z,63.32
2024-04-18T16:09:11.501Z,63.54
2024-04-18T16:13:16.561Z,63.43
2024-04-18T16:17:26.259Z,64.27
2024-04-18T16:21:46.880Z,65.26
2024-04-18T16:26:01.310Z,64.67
2024-04-18T16:30:09.076Z,65.34
2024-04-18T16:34:17.817Z,65.01
2024-04-18T16:38:31.283Z,65.88
2024-04-18T16:42:34.872Z,65.78
2024-04-18T16:46:37.259Z,65.36
2024-04-18T16:50:39.547Z,65.79
2024-04-18T16:54:48.195Z,66.34
2024-04-18T16:59:11.397Z,66.09
2024-04-18T17:03:13.990Z,67.09
2024-04-18T17:07:32.347Z,68.42
2024-04-18T17:11:53.510Z,67.65
2024-04-18T17:16:22.313Z,67.25
2024-04-18T17:20:24.735Z,68.00
2024-04-18T17:24:27.114Z,67.72
2024-04-18T17:28:41.731Z,67.70
2024-04-18T17:32:45.943Z,67.81
2024-04-18T17:37:00.478Z,67.04
2024-04-18T17:41:41.321Z,67.58
2024-04-18T17:45:58.849Z,68.41
2024-04-18T17:50:01.256Z,67.62
2024-04-18T17:54:03.883Z,66.88
2024-04-18T17:58:06.285Z,67.77
2024-04-18T18:02:08.646Z,67.52
2024-04-18T18:06:31.236Z,67.84
2024-04-18T18:10:33.341Z,70.49
2024-04-18T18:14:44.970Z,70.36
2024-04-18T18:18:47.709Z,71.44
2024-04-18T18:22:50.306Z,70.89
2024-04-18T18:26:52.622Z,72.28
2024-04-18T18:30:55.351Z,73.01
2024-04-18T18:35:00.473Z,72.57
2024-04-18T18:39:04.098Z,72.23
2024-04-18T18:43:07.309Z,72.31
2024-04-18T18:47:10.091Z,71.95
2024-04-18T18:51:24.869Z,71.30
2024-04-18T18:55:28.078Z,70.74
2024-04-18T18:59:37.535Z,70.56
2024-04-18T19:03:39.888Z,71.82
2024-04-18T19:07:42.307Z,70.99
2024-04-18T19:11:44.853Z,71.30
2024-04-18T19:15:57.524Z,72.25
2024-04-18T19:19:59.853Z,70.86
2024-04-18T19:24:02.176Z,70.64
2024-04-18T19:28:04.855Z,70.54
2024-04-18T19:32:07.329Z,70.85
2024-04-18T19:36:09.771Z,71.66
2024-04-18T19:40:12.085Z,69.39
2024-04-18T19:44:34.648Z,69.85
2024-04-18T19:48:37.123Z,70.51
2024-04-18T19:52:39.521Z,70.40
2024-04-18T19:56:41.813Z,70.07
2024-04-18T20:00:45.784Z,70.20
2024-04-18T20:04:48.341Z,69.98
2024-04-18T20:08:50.206Z,67.78
2024-04-18T20:12:52.623Z,69.10
2024-04-18T20:16:55.458Z,69.00
2024-04-18T20:20:57.804Z,69.20
2024-04-18T20:25:00.224Z,68.15
2024-04-18T20:29:17.002Z,66.79
2024-04-18T20:33:19.426Z,68.07
2024-04-18T20:37:23.059Z,68.10
2024-04-18T20:41:26.116Z,68.17
2024-04-18T20:45:31.161Z,68.23
2024-04-18T20:49:34.316Z,67.20
2024-04-18T20:53:36.625Z,68.67
2024-04-18T20:57:39.052Z,67.53
2024-04-18T21:01:42.048Z,68.30
2024-04-18T21:05:47.706Z,69.34
2024-04-18T21:09:50.086Z,69.96
2024-04-18T21:13:52.408Z,69.30
2024-04-18T21:17:55.235Z,69.11
2024-04-18T21:21:57.810Z,69.74
2024-04-18T21:26:00.542Z,70.22
2024-04-18T21:30:02.926Z,71.30
2024-04-18T21:34:07.551Z,71.60
2024-04-18T21:38:09.912Z,70.70
2024-04-18T21:42:12.277Z,70.94
2024-04-18T21:46:14.590Z,71.77
2024-04-18T21:50:16.956Z,72.22
2024-04-18T21:54:19.387Z,72.69
2024-04-18T21:58:21.888Z,72.16
2024-04-18T22:02:24.242Z,72.99
2024-04-18T22:06:26.731Z,73.03
2024-04-18T22:10:29.285Z,72.92
2024-04-18T22:14:32.181Z,73.47
2024-04-18T22:18:34.655Z,73.76
2024-04-18T22:22:37.010Z,73.03
2024-04-18T22:26:39.372Z,73.62
2024-04-18T22:30:42.151Z,73.94
2024-04-18T22:34:47.474Z,74.44
2024-04-18T22:39:05.783Z,74.90
2024-04-18T22:43:08.104Z,74.96
2024-04-18T22:47:13.299Z,74.43
2024-04-18T22:51:15.760Z,75.16
2024-04-18T22:55:18.736Z,75.27
2024-04-18T22:59:21.009Z,77.13
2024-04-18T23:03:23.661Z,77.63
2024-04-18T23:07:26.187Z,77.18
2024-04-18T23:11:29.987Z,77.19
2024-04-18T23:15:32.477Z,77.58
2024-04-18T23:19:34.837Z,77.68
2024-04-18T23:23:37.281Z,77.59
2024-04-18T23:27:39.849Z,77.71
2024-04-18T23:31:42.155Z,77.12
2024-04-18T23:35:44.500Z,76.89
2024-04-18T23:39:46.883Z,77.30
2024-04-18T23:43:49.216Z,77.27
2024-04-18T23:47:51.742Z,77.61
2024-04-18T23:51:54.061Z,78.08
2024-04-18T23:55:56.388Z,78.31
2024-04-18T23:59:58.852Z,78.51
